Weather at Gatlinburg-Pigeon Forge Airport

Public forecast

Using degrees Fahrenheit for public forecast. Weather courtesy of forecast.io.

Current aviation weather report (METAR) for Gatlinburg-Pigeon Forge Airport

Report is more than 6 hours old.

2022/11/14 15:35 (retrieved 2 years ago)

KGKT 141535Z AUTO 05004KT 10SM CLR 02/M02 A3033 RMK A01

Closest aviation forecast (TAF) to Gatlinburg-Pigeon Forge Airport

Forecast is more than 12 hours old.

Closest forecast is McGhee Tyson Airport, 22.8 nm (42.3 km) W.

2023/02/22 18:22 (retrieved 1 year ago)

TAF KTYS 221720Z 2218/2318 21019G32KT P6SM FEW050 FM230000 20013G26KT P6SM BKN040 PROB30 2310/2314 5SM -SHRA BKN020 FM231400 23014G23KT P6SM FEW035